sensor_id;sensor_type;location;lat;lon;timestamp;P1;durP1;ratioP1;P2;durP2;ratioP2
938;SDS011;456;53.584;9.968;2023-08-20T00:00:28;5.30;;;4.90;;
938;SDS011;456;53.584;9.968;2023-08-20T00:03:04;5.17;;;4.77;;
938;SDS011;456;53.584;9.968;2023-08-20T00:05:38;5.17;;;4.77;;
938;SDS011;456;53.584;9.968;2023-08-20T00:08:04;5.20;;;4.80;;
938;SDS011;456;53.584;9.968;2023-08-20T00:10:30;5.90;;;5.50;;
938;SDS011;456;53.584;9.968;2023-08-20T00:12:57;5.17;;;4.77;;
938;SDS011;456;53.584;9.968;2023-08-20T00:15:23;5.10;;;4.70;;
938;SDS011;456;53.584;9.968;2023-08-20T00:17:51;5.07;;;4.70;;
938;SDS011;456;53.584;9.968;2023-08-20T00:20:18;4.70;;;4.30;;
938;SDS011;456;53.584;9.968;2023-08-20T00:22:45;5.30;;;4.80;;
938;SDS011;456;53.584;9.968;2023-08-20T00:25:14;5.13;;;4.73;;
938;SDS011;456;53.584;9.968;2023-08-20T00:27:41;4.90;;;4.50;;
938;SDS011;456;53.584;9.968;2023-08-20T00:30:10;4.67;;;4.30;;
938;SDS011;456;53.584;9.968;2023-08-20T00:32:36;5.13;;;4.73;;
938;SDS011;456;53.584;9.968;2023-08-20T00:35:02;5.17;;;4.77;;
938;SDS011;456;53.584;9.968;2023-08-20T00:37:29;5.57;;;5.07;;
938;SDS011;456;53.584;9.968;2023-08-20T00:39:55;5.20;;;4.80;;
938;SDS011;456;53.584;9.968;2023-08-20T00:42:22;5.40;;;4.97;;
938;SDS011;456;53.584;9.968;2023-08-20T00:44:50;4.43;;;4.13;;
938;SDS011;456;53.584;9.968;2023-08-20T00:47:16;4.70;;;4.33;;
938;SDS011;456;53.584;9.968;2023-08-20T00:49:43;4.97;;;4.60;;
938;SDS011;456;53.584;9.968;2023-08-20T00:52:09;5.60;;;5.10;;
938;SDS011;456;53.584;9.968;2023-08-20T00:54:37;4.63;;;4.27;;
938;SDS011;456;53.584;9.968;2023-08-20T00:57:05;4.53;;;4.23;;
938;SDS011;456;53.584;9.968;2023-08-20T00:59:33;4.80;;;4.40;;
938;SDS011;456;53.584;9.968;2023-08-20T01:01:59;4.43;;;4.03;;
938;SDS011;456;53.584;9.968;2023-08-20T01:04:26;4.53;;;4.23;;
938;SDS011;456;53.584;9.968;2023-08-20T01:07:04;4.30;;;4.00;;
938;SDS011;456;53.584;9.968;2023-08-20T01:09:57;4.07;;;3.77;;
938;SDS011;456;53.584;9.968;2023-08-20T01:12:31;5.30;;;4.80;;
938;SDS011;456;53.584;9.968;2023-08-20T01:14:59;4.53;;;4.23;;
938;SDS011;456;53.584;9.968;2023-08-20T01:17:24;4.70;;;4.40;;
938;SDS011;456;53.584;9.968;2023-08-20T01:19:50;4.73;;;4.43;;
938;SDS011;456;53.584;9.968;2023-08-20T01:22:33;4.17;;;3.87;;
938;SDS011;456;53.584;9.968;2023-08-20T01:30:51;4.10;;;3.80;;
938;SDS011;456;53.584;9.968;2023-08-20T01:33:18;4.13;;;3.83;;
938;SDS011;456;53.584;9.968;2023-08-20T01:35:44;4.40;;;4.00;;
938;SDS011;456;53.584;9.968;2023-08-20T01:38:10;4.50;;;4.10;;
938;SDS011;456;53.584;9.968;2023-08-20T01:40:35;5.27;;;4.77;;
938;SDS011;456;53.584;9.968;2023-08-20T01:43:01;4.80;;;4.40;;
938;SDS011;456;53.584;9.968;2023-08-20T01:45:27;4.07;;;3.77;;
938;SDS011;456;53.584;9.968;2023-08-20T01:47:52;4.93;;;4.40;;
938;SDS011;456;53.584;9.968;2023-08-20T01:50:18;4.50;;;4.20;;
938;SDS011;456;53.584;9.968;2023-08-20T01:52:44;4.40;;;4.00;;
938;SDS011;456;53.584;9.968;2023-08-20T01:55:09;4.40;;;4.10;;
938;SDS011;456;53.584;9.968;2023-08-20T01:57:36;4.80;;;4.40;;
938;SDS011;456;53.584;9.968;2023-08-20T02:00:01;4.77;;;4.37;;
938;SDS011;456;53.584;9.968;2023-08-20T02:02:30;4.00;;;3.70;;
938;SDS011;456;53.584;9.968;2023-08-20T02:04:55;3.67;;;3.40;;
938;SDS011;456;53.584;9.968;2023-08-20T02:07:21;3.87;;;3.57;;
938;SDS011;456;53.584;9.968;2023-08-20T02:09:47;4.30;;;4.00;;
938;SDS011;456;53.584;9.968;2023-08-20T02:12:12;4.37;;;4.07;;
938;SDS011;456;53.584;9.968;2023-08-20T02:14:38;4.07;;;3.73;;
938;SDS011;456;53.584;9.968;2023-08-20T02:17:03;5.00;;;4.50;;
938;SDS011;456;53.584;9.968;2023-08-20T02:19:29;4.70;;;4.30;;
938;SDS011;456;53.584;9.968;2023-08-20T02:21:55;3.90;;;3.60;;
938;SDS011;456;53.584;9.968;2023-08-20T02:24:20;4.50;;;4.10;;
938;SDS011;456;53.584;9.968;2023-08-20T02:26:46;4.50;;;4.20;;
938;SDS011;456;53.584;9.968;2023-08-20T02:29:12;4.17;;;3.77;;
938;SDS011;456;53.584;9.968;2023-08-20T02:31:37;4.40;;;4.10;;
938;SDS011;456;53.584;9.968;2023-08-20T02:34:03;4.77;;;4.37;;
938;SDS011;456;53.584;9.968;2023-08-20T02:36:28;4.43;;;4.13;;
938;SDS011;456;53.584;9.968;2023-08-20T02:38:54;4.67;;;3.47;;
938;SDS011;456;53.584;9.968;2023-08-20T02:41:20;4.67;;;4.27;;
938;SDS011;456;53.584;9.968;2023-08-20T02:43:45;4.40;;;4.00;;
938;SDS011;456;53.584;9.968;2023-08-20T02:46:11;4.10;;;3.80;;
938;SDS011;456;53.584;9.968;2023-08-20T02:48:37;4.57;;;4.17;;
938;SDS011;456;53.584;9.968;2023-08-20T02:51:02;4.80;;;4.40;;
938;SDS011;456;53.584;9.968;2023-08-20T02:53:28;4.43;;;4.10;;
938;SDS011;456;53.584;9.968;2023-08-20T02:55:54;3.73;;;3.43;;
938;SDS011;456;53.584;9.968;2023-08-20T02:58:19;5.10;;;4.60;;
938;SDS011;456;53.584;9.968;2023-08-20T03:00:45;4.10;;;3.70;;
938;SDS011;456;53.584;9.968;2023-08-20T03:03:11;4.10;;;3.80;;
938;SDS011;456;53.584;9.968;2023-08-20T03:05:37;4.50;;;4.10;;
938;SDS011;456;53.584;9.968;2023-08-20T03:08:03;4.40;;;4.10;;
938;SDS011;456;53.584;9.968;2023-08-20T03:10:29;4.97;;;4.57;;
938;SDS011;456;53.584;9.968;2023-08-20T03:12:56;4.70;;;4.30;;
938;SDS011;456;53.584;9.968;2023-08-20T03:15:23;4.10;;;3.80;;
938;SDS011;456;53.584;9.968;2023-08-20T03:17:48;4.30;;;4.00;;
938;SDS011;456;53.584;9.968;2023-08-20T03:20:14;4.60;;;4.20;;
938;SDS011;456;53.584;9.968;2023-08-20T03:22:39;4.33;;;3.93;;
938;SDS011;456;53.584;9.968;2023-08-20T03:25:05;4.70;;;4.30;;
938;SDS011;456;53.584;9.968;2023-08-20T03:27:31;4.47;;;4.17;;
938;SDS011;456;53.584;9.968;2023-08-20T03:29:57;4.90;;;4.50;;
938;SDS011;456;53.584;9.968;2023-08-20T03:32:23;4.30;;;4.00;;
938;SDS011;456;53.584;9.968;2023-08-20T03:34:48;5.23;;;4.17;;
938;SDS011;456;53.584;9.968;2023-08-20T03:37:15;4.63;;;4.23;;
938;SDS011;456;53.584;9.968;2023-08-20T03:39:41;3.97;;;3.67;;
938;SDS011;456;53.584;9.968;2023-08-20T03:42:06;3.80;;;3.50;;
938;SDS011;456;53.584;9.968;2023-08-20T03:44:32;3.90;;;3.60;;
938;SDS011;456;53.584;9.968;2023-08-20T03:46:57;4.80;;;4.27;;
938;SDS011;456;53.584;9.968;2023-08-20T03:49:23;3.97;;;3.67;;
938;SDS011;456;53.584;9.968;2023-08-20T03:51:48;4.73;;;4.23;;
938;SDS011;456;53.584;9.968;2023-08-20T03:54:14;4.70;;;4.23;;
938;SDS011;456;53.584;9.968;2023-08-20T03:56:39;4.47;;;4.07;;
938;SDS011;456;53.584;9.968;2023-08-20T03:59:05;5.10;;;4.70;;
938;SDS011;456;53.584;9.968;2023-08-20T04:01:31;4.50;;;4.10;;
938;SDS011;456;53.584;9.968;2023-08-20T04:03:57;4.13;;;3.80;;
938;SDS011;456;53.584;9.968;2023-08-20T04:06:22;3.97;;;3.60;;
938;SDS011;456;53.584;9.968;2023-08-20T04:08:48;4.80;;;4.33;;
938;SDS011;456;53.584;9.968;2023-08-20T04:11:14;3.90;;;3.60;;
938;SDS011;456;53.584;9.968;2023-08-20T04:13:39;3.67;;;3.40;;
938;SDS011;456;53.584;9.968;2023-08-20T04:16:08;5.00;;;4.50;;
938;SDS011;456;53.584;9.968;2023-08-20T04:18:33;4.57;;;4.17;;
938;SDS011;456;53.584;9.968;2023-08-20T04:20:59;5.03;;;4.63;;
938;SDS011;456;53.584;9.968;2023-08-20T04:23:24;3.70;;;3.40;;
938;SDS011;456;53.584;9.968;2023-08-20T04:25:50;3.97;;;3.67;;
938;SDS011;456;53.584;9.968;2023-08-20T04:28:16;4.80;;;4.40;;
938;SDS011;456;53.584;9.968;2023-08-20T04:30:41;3.70;;;3.40;;
938;SDS011;456;53.584;9.968;2023-08-20T04:33:07;4.93;;;3.97;;
938;SDS011;456;53.584;9.968;2023-08-20T04:35:33;4.13;;;3.80;;
938;SDS011;456;53.584;9.968;2023-08-20T04:37:58;4.40;;;4.07;;
938;SDS011;456;53.584;9.968;2023-08-20T04:40:24;4.20;;;3.90;;
938;SDS011;456;53.584;9.968;2023-08-20T04:42:50;4.10;;;3.80;;
938;SDS011;456;53.584;9.968;2023-08-20T04:45:16;4.67;;;4.27;;
938;SDS011;456;53.584;9.968;2023-08-20T04:47:44;3.87;;;3.57;;
938;SDS011;456;53.584;9.968;2023-08-20T04:50:12;4.30;;;3.90;;
938;SDS011;456;53.584;9.968;2023-08-20T04:52:38;4.33;;;4.03;;
938;SDS011;456;53.584;9.968;2023-08-20T04:55:05;4.70;;;4.30;;
938;SDS011;456;53.584;9.968;2023-08-20T04:57:34;4.47;;;4.07;;
938;SDS011;456;53.584;9.968;2023-08-20T05:00:00;3.87;;;3.57;;
938;SDS011;456;53.584;9.968;2023-08-20T05:02:26;4.30;;;4.00;;
938;SDS011;456;53.584;9.968;2023-08-20T05:04:51;4.20;;;3.90;;
938;SDS011;456;53.584;9.968;2023-08-20T05:07:17;4.40;;;4.00;;
938;SDS011;456;53.584;9.968;2023-08-20T05:09:43;5.00;;;4.60;;
938;SDS011;456;53.584;9.968;2023-08-20T05:12:08;3.67;;;3.33;;
938;SDS011;456;53.584;9.968;2023-08-20T05:14:34;4.30;;;4.00;;
938;SDS011;456;53.584;9.968;2023-08-20T05:17:00;4.50;;;4.10;;
938;SDS011;456;53.584;9.968;2023-08-20T05:19:26;3.73;;;3.43;;
938;SDS011;456;53.584;9.968;2023-08-20T05:21:52;4.30;;;3.93;;
938;SDS011;456;53.584;9.968;2023-08-20T05:24:21;3.93;;;3.57;;
938;SDS011;456;53.584;9.968;2023-08-20T05:27:06;4.30;;;4.00;;
938;SDS011;456;53.584;9.968;2023-08-20T05:29:39;4.43;;;4.13;;
938;SDS011;456;53.584;9.968;2023-08-20T05:32:06;4.30;;;4.00;;
938;SDS011;456;53.584;9.968;2023-08-20T05:34:32;4.57;;;4.23;;
938;SDS011;456;53.584;9.968;2023-08-20T05:36:58;4.27;;;3.97;;
938;SDS011;456;53.584;9.968;2023-08-20T05:39:24;3.77;;;3.47;;
938;SDS011;456;53.584;9.968;2023-08-20T05:41:51;4.20;;;3.90;;
938;SDS011;456;53.584;9.968;2023-08-20T05:44:19;3.60;;;3.30;;
938;SDS011;456;53.584;9.968;2023-08-20T05:46:45;4.20;;;3.90;;
938;SDS011;456;53.584;9.968;2023-08-20T05:49:12;3.97;;;3.67;;
938;SDS011;456;53.584;9.968;2023-08-20T05:51:38;3.97;;;3.67;;
938;SDS011;456;53.584;9.968;2023-08-20T05:54:04;3.70;;;3.40;;
938;SDS011;456;53.584;9.968;2023-08-20T05:56:29;3.73;;;3.43;;
938;SDS011;456;53.584;9.968;2023-08-20T05:58:55;4.27;;;3.93;;
938;SDS011;456;53.584;9.968;2023-08-20T06:01:21;4.13;;;3.77;;
938;SDS011;456;53.584;9.968;2023-08-20T06:03:46;3.80;;;3.50;;
938;SDS011;456;53.584;9.968;2023-08-20T06:06:12;3.80;;;3.50;;
938;SDS011;456;53.584;9.968;2023-08-20T06:08:37;3.97;;;3.67;;
938;SDS011;456;53.584;9.968;2023-08-20T06:11:03;3.73;;;3.43;;
938;SDS011;456;53.584;9.968;2023-08-20T06:13:28;3.33;;;3.03;;
938;SDS011;456;53.584;9.968;2023-08-20T06:15:54;3.70;;;3.40;;
938;SDS011;456;53.584;9.968;2023-08-20T06:18:20;4.10;;;3.80;;
938;SDS011;456;53.584;9.968;2023-08-20T06:20:45;3.90;;;3.60;;
938;SDS011;456;53.584;9.968;2023-08-20T06:23:11;3.87;;;3.57;;
938;SDS011;456;53.584;9.968;2023-08-20T06:25:38;3.87;;;3.53;;
938;SDS011;456;53.584;9.968;2023-08-20T06:28:03;4.00;;;3.70;;
938;SDS011;456;53.584;9.968;2023-08-20T06:30:29;3.33;;;3.03;;
938;SDS011;456;53.584;9.968;2023-08-20T06:32:55;3.73;;;3.43;;
938;SDS011;456;53.584;9.968;2023-08-20T06:35:20;3.70;;;3.40;;
938;SDS011;456;53.584;9.968;2023-08-20T06:37:46;3.43;;;3.13;;
938;SDS011;456;53.584;9.968;2023-08-20T06:40:12;3.63;;;3.33;;
938;SDS011;456;53.584;9.968;2023-08-20T06:42:38;3.80;;;3.50;;
938;SDS011;456;53.584;9.968;2023-08-20T06:45:04;3.43;;;3.23;;
938;SDS011;456;53.584;9.968;2023-08-20T06:47:30;3.37;;;3.07;;
938;SDS011;456;53.584;9.968;2023-08-20T06:49:56;3.33;;;3.13;;
938;SDS011;456;53.584;9.968;2023-08-20T06:52:21;3.43;;;3.23;;
938;SDS011;456;53.584;9.968;2023-08-20T06:54:47;3.87;;;3.57;;
938;SDS011;456;53.584;9.968;2023-08-20T06:57:12;3.60;;;3.30;;
938;SDS011;456;53.584;9.968;2023-08-20T06:59:38;3.80;;;3.50;;
938;SDS011;456;53.584;9.968;2023-08-20T07:02:04;3.70;;;3.40;;
938;SDS011;456;53.584;9.968;2023-08-20T07:04:29;3.63;;;3.33;;
938;SDS011;456;53.584;9.968;2023-08-20T07:06:55;3.80;;;3.50;;
938;SDS011;456;53.584;9.968;2023-08-20T07:09:20;3.43;;;3.13;;
938;SDS011;456;53.584;9.968;2023-08-20T07:11:46;3.40;;;2.90;;
938;SDS011;456;53.584;9.968;2023-08-20T07:14:12;3.80;;;3.50;;
938;SDS011;456;53.584;9.968;2023-08-20T07:16:37;3.20;;;3.00;;
938;SDS011;456;53.584;9.968;2023-08-20T07:19:03;3.80;;;3.50;;
938;SDS011;456;53.584;9.968;2023-08-20T07:21:28;3.30;;;3.10;;
938;SDS011;456;53.584;9.968;2023-08-20T07:23:54;3.90;;;3.60;;
938;SDS011;456;53.584;9.968;2023-08-20T07:26:19;3.50;;;3.27;;
938;SDS011;456;53.584;9.968;2023-08-20T07:28:45;3.40;;;3.20;;
938;SDS011;456;53.584;9.968;2023-08-20T07:31:32;3.30;;;3.10;;
938;SDS011;456;53.584;9.968;2023-08-20T07:33:59;4.70;;;3.60;;
938;SDS011;456;53.584;9.968;2023-08-20T07:36:25;2.87;;;2.67;;
938;SDS011;456;53.584;9.968;2023-08-20T07:38:52;3.77;;;3.47;;
938;SDS011;456;53.584;9.968;2023-08-20T07:41:18;3.90;;;3.60;;
938;SDS011;456;53.584;9.968;2023-08-20T07:43:45;3.40;;;3.20;;
938;SDS011;456;53.584;9.968;2023-08-20T07:46:11;3.23;;;3.03;;
938;SDS011;456;53.584;9.968;2023-08-20T07:48:37;3.13;;;2.93;;
938;SDS011;456;53.584;9.968;2023-08-20T07:51:03;3.30;;;3.00;;
938;SDS011;456;53.584;9.968;2023-08-20T07:53:29;3.13;;;2.93;;
938;SDS011;456;53.584;9.968;2023-08-20T07:55:56;3.13;;;2.93;;
938;SDS011;456;53.584;9.968;2023-08-20T07:58:21;3.30;;;3.10;;
938;SDS011;456;53.584;9.968;2023-08-20T08:00:47;2.87;;;2.67;;
938;SDS011;456;53.584;9.968;2023-08-20T08:03:13;3.27;;;3.07;;
938;SDS011;456;53.584;9.968;2023-08-20T08:05:40;3.50;;;3.20;;
938;SDS011;456;53.584;9.968;2023-08-20T08:08:06;3.00;;;2.80;;
938;SDS011;456;53.584;9.968;2023-08-20T08:10:31;2.63;;;2.43;;
938;SDS011;456;53.584;9.968;2023-08-20T08:12:57;3.00;;;2.70;;
938;SDS011;456;53.584;9.968;2023-08-20T08:15:22;2.83;;;2.53;;
938;SDS011;456;53.584;9.968;2023-08-20T08:17:48;2.63;;;2.43;;
938;SDS011;456;53.584;9.968;2023-08-20T08:20:14;2.93;;;2.70;;
938;SDS011;456;53.584;9.968;2023-08-20T08:22:39;2.90;;;2.70;;
938;SDS011;456;53.584;9.968;2023-08-20T08:25:05;2.33;;;2.10;;
938;SDS011;456;53.584;9.968;2023-08-20T08:27:31;2.90;;;2.70;;
938;SDS011;456;53.584;9.968;2023-08-20T08:29:57;3.03;;;2.83;;
938;SDS011;456;53.584;9.968;2023-08-20T08:32:23;2.70;;;2.50;;
938;SDS011;456;53.584;9.968;2023-08-20T08:34:48;2.60;;;2.40;;
938;SDS011;456;53.584;9.968;2023-08-20T08:37:14;2.77;;;2.53;;
938;SDS011;456;53.584;9.968;2023-08-20T08:39:40;2.50;;;2.30;;
938;SDS011;456;53.584;9.968;2023-08-20T08:42:06;2.87;;;2.67;;
938;SDS011;456;53.584;9.968;2023-08-20T08:44:34;2.00;;;1.90;;
938;SDS011;456;53.584;9.968;2023-08-20T08:47:01;2.90;;;2.70;;
938;SDS011;456;53.584;9.968;2023-08-20T08:49:27;2.30;;;2.20;;
938;SDS011;456;53.584;9.968;2023-08-20T08:51:55;2.30;;;2.20;;
938;SDS011;456;53.584;9.968;2023-08-20T08:54:22;2.17;;;1.97;;
938;SDS011;456;53.584;9.968;2023-08-20T08:56:49;2.50;;;2.30;;
938;SDS011;456;53.584;9.968;2023-08-20T08:59:15;2.50;;;2.30;;
938;SDS011;456;53.584;9.968;2023-08-20T09:01:41;2.77;;;2.57;;
938;SDS011;456;53.584;9.968;2023-08-20T09:04:06;2.43;;;2.23;;
938;SDS011;456;53.584;9.968;2023-08-20T09:06:48;2.93;;;2.73;;
938;SDS011;456;53.584;9.968;2023-08-20T09:09:16;3.03;;;2.77;;
938;SDS011;456;53.584;9.968;2023-08-20T09:11:42;2.60;;;2.40;;
938;SDS011;456;53.584;9.968;2023-08-20T09:14:08;2.50;;;2.30;;
938;SDS011;456;53.584;9.968;2023-08-20T09:16:56;2.03;;;1.93;;
938;SDS011;456;53.584;9.968;2023-08-20T09:19:23;2.53;;;2.33;;
938;SDS011;456;53.584;9.968;2023-08-20T09:21:49;3.07;;;2.87;;
938;SDS011;456;53.584;9.968;2023-08-20T09:24:19;2.77;;;2.57;;
938;SDS011;456;53.584;9.968;2023-08-20T09:26:55;2.40;;;2.20;;
938;SDS011;456;53.584;9.968;2023-08-20T09:29:23;2.43;;;2.23;;
938;SDS011;456;53.584;9.968;2023-08-20T09:31:49;2.43;;;2.23;;
938;SDS011;456;53.584;9.968;2023-08-20T09:34:14;2.23;;;2.13;;
938;SDS011;456;53.584;9.968;2023-08-20T09:36:40;2.70;;;2.50;;
938;SDS011;456;53.584;9.968;2023-08-20T09:39:06;2.17;;;1.97;;
938;SDS011;456;53.584;9.968;2023-08-20T09:41:31;2.47;;;2.27;;
938;SDS011;456;53.584;9.968;2023-08-20T09:43:59;2.40;;;2.20;;
938;SDS011;456;53.584;9.968;2023-08-20T09:46:30;2.40;;;2.20;;
938;SDS011;456;53.584;9.968;2023-08-20T09:48:57;2.60;;;2.40;;
938;SDS011;456;53.584;9.968;2023-08-20T09:51:25;2.20;;;2.10;;
938;SDS011;456;53.584;9.968;2023-08-20T09:54:03;2.60;;;2.13;;
938;SDS011;456;53.584;9.968;2023-08-20T09:56:58;2.50;;;2.30;;
938;SDS011;456;53.584;9.968;2023-08-20T09:59:28;2.37;;;2.17;;
938;SDS011;456;53.584;9.968;2023-08-20T10:01:54;2.10;;;2.00;;
938;SDS011;456;53.584;9.968;2023-08-20T10:04:22;1.80;;;1.70;;
938;SDS011;456;53.584;9.968;2023-08-20T10:06:48;2.60;;;2.40;;
938;SDS011;456;53.584;9.968;2023-08-20T10:09:15;2.30;;;2.10;;
938;SDS011;456;53.584;9.968;2023-08-20T10:11:43;2.33;;;2.13;;
938;SDS011;456;53.584;9.968;2023-08-20T10:14:08;2.67;;;2.47;;
938;SDS011;456;53.584;9.968;2023-08-20T10:16:34;2.67;;;2.47;;
938;SDS011;456;53.584;9.968;2023-08-20T10:19:03;2.17;;;2.07;;
938;SDS011;456;53.584;9.968;2023-08-20T10:21:30;2.13;;;2.00;;
938;SDS011;456;53.584;9.968;2023-08-20T10:23:57;2.40;;;2.20;;
938;SDS011;456;53.584;9.968;2023-08-20T10:26:28;2.30;;;2.10;;
938;SDS011;456;53.584;9.968;2023-08-20T10:29:34;2.30;;;1.93;;
938;SDS011;456;53.584;9.968;2023-08-20T10:31:58;2.40;;;2.20;;
938;SDS011;456;53.584;9.968;2023-08-20T10:34:33;2.20;;;2.00;;
938;SDS011;456;53.584;9.968;2023-08-20T10:37:03;2.77;;;2.40;;
938;SDS011;456;53.584;9.968;2023-08-20T10:39:35;2.50;;;2.30;;
938;SDS011;456;53.584;9.968;2023-08-20T10:42:08;2.63;;;2.43;;
938;SDS011;456;53.584;9.968;2023-08-20T10:47:24;2.30;;;2.00;;
938;SDS011;456;53.584;9.968;2023-08-20T10:49:53;1.97;;;1.87;;
938;SDS011;456;53.584;9.968;2023-08-20T10:52:20;3.37;;;2.20;;
938;SDS011;456;53.584;9.968;2023-08-20T10:54:49;2.33;;;2.20;;
938;SDS011;456;53.584;9.968;2023-08-20T10:57:16;2.30;;;2.10;;
938;SDS011;456;53.584;9.968;2023-08-20T10:59:41;2.77;;;2.53;;
938;SDS011;456;53.584;9.968;2023-08-20T11:02:08;2.60;;;2.40;;
938;SDS011;456;53.584;9.968;2023-08-20T11:04:40;2.27;;;2.07;;
938;SDS011;456;53.584;9.968;2023-08-20T11:07:06;1.80;;;1.70;;
938;SDS011;456;53.584;9.968;2023-08-20T11:09:33;1.83;;;1.73;;
938;SDS011;456;53.584;9.968;2023-08-20T11:11:58;2.80;;;2.60;;
938;SDS011;456;53.584;9.968;2023-08-20T11:14:24;2.30;;;2.10;;
938;SDS011;456;53.584;9.968;2023-08-20T11:16:50;2.00;;;1.90;;
938;SDS011;456;53.584;9.968;2023-08-20T11:19:20;2.57;;;2.37;;
938;SDS011;456;53.584;9.968;2023-08-20T11:21:46;2.50;;;2.17;;
938;SDS011;456;53.584;9.968;2023-08-20T11:24:12;2.30;;;2.10;;
938;SDS011;456;53.584;9.968;2023-08-20T11:26:38;2.00;;;1.90;;
938;SDS011;456;53.584;9.968;2023-08-20T11:29:06;2.23;;;2.13;;
938;SDS011;456;53.584;9.968;2023-08-20T11:31:32;2.03;;;1.83;;
938;SDS011;456;53.584;9.968;2023-08-20T11:33:58;2.17;;;2.03;;
938;SDS011;456;53.584;9.968;2023-08-20T11:36:24;2.03;;;1.93;;
938;SDS011;456;53.584;9.968;2023-08-20T11:38:50;2.30;;;2.10;;
938;SDS011;456;53.584;9.968;2023-08-20T11:41:17;2.03;;;1.87;;
938;SDS011;456;53.584;9.968;2023-08-20T11:43:43;2.00;;;1.90;;
938;SDS011;456;53.584;9.968;2023-08-20T11:46:12;2.00;;;1.80;;
938;SDS011;456;53.584;9.968;2023-08-20T11:48:57;2.40;;;2.20;;
938;SDS011;456;53.584;9.968;2023-08-20T11:51:23;2.20;;;2.00;;
938;SDS011;456;53.584;9.968;2023-08-20T11:53:49;2.10;;;1.90;;
938;SDS011;456;53.584;9.968;2023-08-20T11:56:14;1.87;;;1.77;;
938;SDS011;456;53.584;9.968;2023-08-20T11:58:40;2.10;;;2.00;;
938;SDS011;456;53.584;9.968;2023-08-20T12:01:08;2.40;;;2.20;;
938;SDS011;456;53.584;9.968;2023-08-20T12:03:34;2.30;;;2.10;;
938;SDS011;456;53.584;9.968;2023-08-20T12:06:16;1.87;;;1.77;;
938;SDS011;456;53.584;9.968;2023-08-20T12:08:46;1.90;;;1.80;;
938;SDS011;456;53.584;9.968;2023-08-20T12:11:12;2.67;;;2.47;;
938;SDS011;456;53.584;9.968;2023-08-20T12:13:38;2.27;;;2.07;;
938;SDS011;456;53.584;9.968;2023-08-20T12:16:03;4.13;;;2.10;;
938;SDS011;456;53.584;9.968;2023-08-20T12:18:29;2.30;;;2.10;;
938;SDS011;456;53.584;9.968;2023-08-20T12:20:56;1.90;;;1.80;;
938;SDS011;456;53.584;9.968;2023-08-20T12:23:21;3.47;;;2.30;;
938;SDS011;456;53.584;9.968;2023-08-20T12:25:51;1.60;;;1.50;;
938;SDS011;456;53.584;9.968;2023-08-20T12:28:17;2.10;;;1.90;;
938;SDS011;456;53.584;9.968;2023-08-20T12:30:43;2.40;;;2.20;;
938;SDS011;456;53.584;9.968;2023-08-20T12:33:09;1.83;;;1.73;;
938;SDS011;456;53.584;9.968;2023-08-20T12:35:36;2.00;;;1.80;;
938;SDS011;456;53.584;9.968;2023-08-20T12:38:01;2.03;;;1.83;;
938;SDS011;456;53.584;9.968;2023-08-20T12:40:28;2.60;;;2.40;;
938;SDS011;456;53.584;9.968;2023-08-20T12:42:54;2.00;;;1.90;;
938;SDS011;456;53.584;9.968;2023-08-20T12:45:19;2.40;;;2.20;;
938;SDS011;456;53.584;9.968;2023-08-20T12:47:45;2.37;;;2.27;;
938;SDS011;456;53.584;9.968;2023-08-20T12:50:10;2.03;;;1.93;;
938;SDS011;456;53.584;9.968;2023-08-20T12:52:38;2.30;;;2.10;;
938;SDS011;456;53.584;9.968;2023-08-20T12:55:04;1.77;;;1.67;;
938;SDS011;456;53.584;9.968;2023-08-20T12:57:30;1.73;;;1.63;;
938;SDS011;456;53.584;9.968;2023-08-20T12:59:59;2.00;;;1.90;;
938;SDS011;456;53.584;9.968;2023-08-20T13:02:25;2.50;;;2.30;;
938;SDS011;456;53.584;9.968;2023-08-20T13:04:51;2.00;;;1.90;;
938;SDS011;456;53.584;9.968;2023-08-20T13:07:17;1.97;;;1.87;;
938;SDS011;456;53.584;9.968;2023-08-20T13:09:43;1.70;;;1.60;;
938;SDS011;456;53.584;9.968;2023-08-20T13:12:09;2.57;;;2.37;;
938;SDS011;456;53.584;9.968;2023-08-20T13:14:37;2.47;;;2.27;;
938;SDS011;456;53.584;9.968;2023-08-20T13:17:04;3.10;;;2.40;;
938;SDS011;456;53.584;9.968;2023-08-20T13:19:30;2.10;;;1.90;;
938;SDS011;456;53.584;9.968;2023-08-20T13:21:56;2.57;;;2.37;;
938;SDS011;456;53.584;9.968;2023-08-20T13:24:21;2.03;;;1.80;;
938;SDS011;456;53.584;9.968;2023-08-20T13:26:47;2.67;;;1.93;;
938;SDS011;456;53.584;9.968;2023-08-20T13:29:12;2.60;;;2.20;;
938;SDS011;456;53.584;9.968;2023-08-20T13:31:38;3.27;;;2.30;;
938;SDS011;456;53.584;9.968;2023-08-20T13:34:03;2.50;;;2.30;;
938;SDS011;456;53.584;9.968;2023-08-20T13:36:29;2.50;;;2.20;;
938;SDS011;456;53.584;9.968;2023-08-20T13:38:55;2.10;;;2.00;;
938;SDS011;456;53.584;9.968;2023-08-20T13:41:21;2.53;;;2.00;;
938;SDS011;456;53.584;9.968;2023-08-20T13:43:46;4.03;;;2.30;;
938;SDS011;456;53.584;9.968;2023-08-20T13:46:12;2.80;;;2.30;;
938;SDS011;456;53.584;9.968;2023-08-20T13:48:38;3.83;;;2.30;;
938;SDS011;456;53.584;9.968;2023-08-20T13:51:03;3.30;;;2.33;;
938;SDS011;456;53.584;9.968;2023-08-20T13:53:29;2.50;;;2.30;;
938;SDS011;456;53.584;9.968;2023-08-20T13:55:54;3.30;;;2.07;;
938;SDS011;456;53.584;9.968;2023-08-20T13:58:20;2.27;;;2.07;;
938;SDS011;456;53.584;9.968;2023-08-20T14:00:46;2.27;;;2.07;;
938;SDS011;456;53.584;9.968;2023-08-20T14:03:11;2.17;;;2.00;;
938;SDS011;456;53.584;9.968;2023-08-20T14:05:37;3.27;;;1.87;;
938;SDS011;456;53.584;9.968;2023-08-20T14:08:03;2.07;;;1.97;;
938;SDS011;456;53.584;9.968;2023-08-20T14:10:28;4.00;;;1.83;;
938;SDS011;456;53.584;9.968;2023-08-20T14:12:54;3.00;;;2.20;;
938;SDS011;456;53.584;9.968;2023-08-20T14:15:20;2.20;;;2.00;;
938;SDS011;456;53.584;9.968;2023-08-20T14:17:45;2.40;;;2.20;;
938;SDS011;456;53.584;9.968;2023-08-20T14:20:11;2.77;;;2.53;;
938;SDS011;456;53.584;9.968;2023-08-20T14:22:38;1.80;;;1.70;;
938;SDS011;456;53.584;9.968;2023-08-20T14:25:04;2.10;;;1.90;;
938;SDS011;456;53.584;9.968;2023-08-20T14:27:30;2.87;;;2.00;;
938;SDS011;456;53.584;9.968;2023-08-20T14:29:55;2.57;;;2.37;;
938;SDS011;456;53.584;9.968;2023-08-20T14:32:21;3.10;;;2.20;;
938;SDS011;456;53.584;9.968;2023-08-20T14:34:46;2.60;;;2.40;;
938;SDS011;456;53.584;9.968;2023-08-20T14:37:12;2.20;;;2.10;;
938;SDS011;456;53.584;9.968;2023-08-20T14:39:38;2.63;;;2.20;;
938;SDS011;456;53.584;9.968;2023-08-20T14:42:04;4.17;;;2.20;;
938;SDS011;456;53.584;9.968;2023-08-20T14:44:30;3.07;;;2.63;;
938;SDS011;456;53.584;9.968;2023-08-20T14:46:55;2.13;;;2.03;;
938;SDS011;456;53.584;9.968;2023-08-20T14:49:21;3.40;;;2.50;;
938;SDS011;456;53.584;9.968;2023-08-20T14:51:46;2.73;;;2.17;;
938;SDS011;456;53.584;9.968;2023-08-20T14:54:13;2.27;;;2.13;;
938;SDS011;456;53.584;9.968;2023-08-20T14:56:39;1.93;;;1.83;;
938;SDS011;456;53.584;9.968;2023-08-20T14:59:04;2.90;;;2.60;;
938;SDS011;456;53.584;9.968;2023-08-20T15:01:30;4.40;;;2.20;;
938;SDS011;456;53.584;9.968;2023-08-20T15:03:55;2.30;;;2.10;;
938;SDS011;456;53.584;9.968;2023-08-20T15:06:21;2.43;;;2.27;;
938;SDS011;456;53.584;9.968;2023-08-20T15:08:48;2.60;;;2.40;;
938;SDS011;456;53.584;9.968;2023-08-20T15:11:14;2.17;;;2.07;;
938;SDS011;456;53.584;9.968;2023-08-20T15:13:40;2.20;;;2.00;;
938;SDS011;456;53.584;9.968;2023-08-20T15:16:05;2.37;;;2.17;;
938;SDS011;456;53.584;9.968;2023-08-20T15:18:31;2.17;;;2.07;;
938;SDS011;456;53.584;9.968;2023-08-20T15:20:57;2.00;;;1.80;;
938;SDS011;456;53.584;9.968;2023-08-20T15:23:27;2.50;;;2.30;;
938;SDS011;456;53.584;9.968;2023-08-20T15:25:53;2.30;;;2.10;;
938;SDS011;456;53.584;9.968;2023-08-20T15:28:20;2.30;;;2.07;;
938;SDS011;456;53.584;9.968;2023-08-20T15:30:48;2.83;;;2.20;;
938;SDS011;456;53.584;9.968;2023-08-20T15:33:13;2.50;;;2.30;;
938;SDS011;456;53.584;9.968;2023-08-20T15:35:39;2.37;;;2.17;;
938;SDS011;456;53.584;9.968;2023-08-20T15:38:05;3.90;;;2.57;;
938;SDS011;456;53.584;9.968;2023-08-20T15:40:31;2.90;;;2.47;;
938;SDS011;456;53.584;9.968;2023-08-20T15:42:56;2.50;;;2.30;;
938;SDS011;456;53.584;9.968;2023-08-20T15:45:22;3.30;;;3.00;;
938;SDS011;456;53.584;9.968;2023-08-20T15:47:47;7.63;;;2.63;;
938;SDS011;456;53.584;9.968;2023-08-20T15:50:13;2.70;;;2.50;;